sensor_id;sensor_type;location;lat;lon;timestamp;P1;durP1;ratioP1;P2;durP2;ratioP2
55172;SDS011;41061;52.822;6.860;2023-01-29T00:02:20;25.35;;;15.18;;
55172;SDS011;41061;52.822;6.860;2023-01-29T00:04:46;23.20;;;15.05;;
55172;SDS011;41061;52.822;6.860;2023-01-29T00:07:12;25.17;;;16.00;;
55172;SDS011;41061;52.822;6.860;2023-01-29T00:09:38;22.45;;;15.43;;
55172;SDS011;41061;52.822;6.860;2023-01-29T00:12:04;26.40;;;15.77;;
55172;SDS011;41061;52.822;6.860;2023-01-29T00:14:32;24.13;;;15.98;;
55172;SDS011;41061;52.822;6.860;2023-01-29T00:16:58;25.63;;;16.23;;
55172;SDS011;41061;52.822;6.860;2023-01-29T00:19:25;26.90;;;15.57;;
55172;SDS011;41061;52.822;6.860;2023-01-29T00:21:50;24.08;;;15.23;;
55172;SDS011;41061;52.822;6.860;2023-01-29T00:24:16;24.48;;;16.23;;
55172;SDS011;41061;52.822;6.860;2023-01-29T00:26:42;24.85;;;15.38;;
55172;SDS011;41061;52.822;6.860;2023-01-29T00:29:08;25.00;;;15.48;;
55172;SDS011;41061;52.822;6.860;2023-01-29T00:31:34;20.20;;;14.82;;
55172;SDS011;41061;52.822;6.860;2023-01-29T00:33:59;25.50;;;16.33;;
55172;SDS011;41061;52.822;6.860;2023-01-29T00:36:25;22.85;;;15.20;;
55172;SDS011;41061;52.822;6.860;2023-01-29T00:38:55;24.88;;;15.35;;
55172;SDS011;41061;52.822;6.860;2023-01-29T00:41:30;26.27;;;15.70;;
55172;SDS011;41061;52.822;6.860;2023-01-29T00:44:15;25.63;;;14.75;;
55172;SDS011;41061;52.822;6.860;2023-01-29T00:47:00;22.63;;;15.38;;
55172;SDS011;41061;52.822;6.860;2023-01-29T00:49:27;28.05;;;15.40;;
55172;SDS011;41061;52.822;6.860;2023-01-29T00:51:54;29.90;;;16.85;;
55172;SDS011;41061;52.822;6.860;2023-01-29T00:54:38;25.60;;;15.73;;
55172;SDS011;41061;52.822;6.860;2023-01-29T00:57:03;24.13;;;15.07;;
55172;SDS011;41061;52.822;6.860;2023-01-29T00:59:29;22.63;;;14.63;;
55172;SDS011;41061;52.822;6.860;2023-01-29T01:01:55;24.23;;;15.27;;
55172;SDS011;41061;52.822;6.860;2023-01-29T01:04:39;27.48;;;15.75;;
55172;SDS011;41061;52.822;6.860;2023-01-29T01:07:05;25.55;;;14.73;;
55172;SDS011;41061;52.822;6.860;2023-01-29T01:09:33;19.90;;;14.18;;
55172;SDS011;41061;52.822;6.860;2023-01-29T01:12:18;22.02;;;14.93;;
55172;SDS011;41061;52.822;6.860;2023-01-29T01:14:45;22.35;;;14.65;;
55172;SDS011;41061;52.822;6.860;2023-01-29T01:17:11;22.25;;;14.90;;
55172;SDS011;41061;52.822;6.860;2023-01-29T01:19:37;21.10;;;13.98;;
55172;SDS011;41061;52.822;6.860;2023-01-29T01:22:02;22.60;;;14.77;;
55172;SDS011;41061;52.822;6.860;2023-01-29T01:24:29;23.60;;;14.65;;
55172;SDS011;41061;52.822;6.860;2023-01-29T01:26:55;23.70;;;15.25;;
55172;SDS011;41061;52.822;6.860;2023-01-29T01:29:21;22.85;;;14.48;;
55172;SDS011;41061;52.822;6.860;2023-01-29T01:31:47;27.58;;;15.70;;
55172;SDS011;41061;52.822;6.860;2023-01-29T01:34:12;23.15;;;14.77;;
55172;SDS011;41061;52.822;6.860;2023-01-29T01:36:38;21.70;;;14.73;;
55172;SDS011;41061;52.822;6.860;2023-01-29T01:39:04;22.42;;;13.93;;
55172;SDS011;41061;52.822;6.860;2023-01-29T01:41:29;24.73;;;15.35;;
55172;SDS011;41061;52.822;6.860;2023-01-29T01:43:59;22.48;;;15.60;;
55172;SDS011;41061;52.822;6.860;2023-01-29T01:46:34;24.45;;;14.75;;
55172;SDS011;41061;52.822;6.860;2023-01-29T01:49:02;22.77;;;14.85;;
55172;SDS011;41061;52.822;6.860;2023-01-29T01:51:41;25.50;;;15.95;;
55172;SDS011;41061;52.822;6.860;2023-01-29T01:54:15;25.33;;;15.25;;
55172;SDS011;41061;52.822;6.860;2023-01-29T01:56:47;24.38;;;15.32;;
55172;SDS011;41061;52.822;6.860;2023-01-29T01:59:18;23.40;;;14.13;;
55172;SDS011;41061;52.822;6.860;2023-01-29T02:01:46;23.33;;;14.18;;
55172;SDS011;41061;52.822;6.860;2023-01-29T02:04:21;23.40;;;14.52;;
55172;SDS011;41061;52.822;6.860;2023-01-29T02:07:08;23.23;;;14.88;;
55172;SDS011;41061;52.822;6.860;2023-01-29T02:10:07;22.30;;;14.15;;
55172;SDS011;41061;52.822;6.860;2023-01-29T02:12:38;22.15;;;13.52;;
55172;SDS011;41061;52.822;6.860;2023-01-29T02:15:06;26.55;;;14.00;;
55172;SDS011;41061;52.822;6.860;2023-01-29T02:17:32;24.30;;;14.18;;
55172;SDS011;41061;52.822;6.860;2023-01-29T02:31:41;21.48;;;14.38;;
55172;SDS011;41061;52.822;6.860;2023-01-29T02:37:02;27.27;;;14.35;;
55172;SDS011;41061;52.822;6.860;2023-01-29T02:39:37;23.65;;;14.32;;
55172;SDS011;41061;52.822;6.860;2023-01-29T02:47:41;22.08;;;14.32;;
55172;SDS011;41061;52.822;6.860;2023-01-29T02:50:20;23.55;;;14.90;;
55172;SDS011;41061;52.822;6.860;2023-01-29T02:54:09;21.17;;;14.40;;
55172;SDS011;41061;52.822;6.860;2023-01-29T02:56:09;24.17;;;14.27;;
55172;SDS011;41061;52.822;6.860;2023-01-29T02:58:45;20.92;;;14.13;;
55172;SDS011;41061;52.822;6.860;2023-01-29T03:01:18;22.30;;;13.48;;
55172;SDS011;41061;52.822;6.860;2023-01-29T03:03:52;21.48;;;14.02;;
55172;SDS011;41061;52.822;6.860;2023-01-29T03:06:27;25.27;;;13.95;;
55172;SDS011;41061;52.822;6.860;2023-01-29T03:08:58;22.10;;;14.40;;
55172;SDS011;41061;52.822;6.860;2023-01-29T03:11:28;21.27;;;14.23;;
55172;SDS011;41061;52.822;6.860;2023-01-29T03:14:21;19.95;;;13.70;;
55172;SDS011;41061;52.822;6.860;2023-01-29T03:17:16;25.23;;;14.68;;
55172;SDS011;41061;52.822;6.860;2023-01-29T03:19:45;24.77;;;14.25;;
55172;SDS011;41061;52.822;6.860;2023-01-29T03:22:12;23.33;;;14.07;;
55172;SDS011;41061;52.822;6.860;2023-01-29T03:24:43;24.40;;;15.63;;
55172;SDS011;41061;52.822;6.860;2023-01-29T03:27:39;25.58;;;15.38;;
55172;SDS011;41061;52.822;6.860;2023-01-29T03:30:29;25.88;;;15.02;;
55172;SDS011;41061;52.822;6.860;2023-01-29T03:33:16;24.42;;;14.68;;
55172;SDS011;41061;52.822;6.860;2023-01-29T03:35:46;24.27;;;15.07;;
55172;SDS011;41061;52.822;6.860;2023-01-29T03:38:17;29.55;;;15.80;;
55172;SDS011;41061;52.822;6.860;2023-01-29T03:40:47;22.77;;;14.82;;
55172;SDS011;41061;52.822;6.860;2023-01-29T03:51:54;26.52;;;15.40;;
55172;SDS011;41061;52.822;6.860;2023-01-29T03:56:59;24.85;;;15.55;;
55172;SDS011;41061;52.822;6.860;2023-01-29T04:02:21;26.25;;;15.70;;
55172;SDS011;41061;52.822;6.860;2023-01-29T04:04:51;26.17;;;15.82;;
55172;SDS011;41061;52.822;6.860;2023-01-29T04:07:22;28.08;;;16.65;;
55172;SDS011;41061;52.822;6.860;2023-01-29T04:10:08;27.92;;;16.05;;
55172;SDS011;41061;52.822;6.860;2023-01-29T04:12:51;26.20;;;14.82;;
55172;SDS011;41061;52.822;6.860;2023-01-29T04:15:27;26.30;;;15.77;;
55172;SDS011;41061;52.822;6.860;2023-01-29T04:17:55;23.52;;;16.10;;
55172;SDS011;41061;52.822;6.860;2023-01-29T04:20:21;25.20;;;15.52;;
55172;SDS011;41061;52.822;6.860;2023-01-29T04:22:49;23.13;;;15.93;;
55172;SDS011;41061;52.822;6.860;2023-01-29T04:25:23;25.38;;;15.50;;
55172;SDS011;41061;52.822;6.860;2023-01-29T04:27:57;23.42;;;15.48;;
55172;SDS011;41061;52.822;6.860;2023-01-29T04:31:01;24.48;;;15.70;;
55172;SDS011;41061;52.822;6.860;2023-01-29T04:41:30;24.52;;;15.82;;
55172;SDS011;41061;52.822;6.860;2023-01-29T04:47:04;25.48;;;16.48;;
55172;SDS011;41061;52.822;6.860;2023-01-29T04:52:31;25.85;;;16.92;;
55172;SDS011;41061;52.822;6.860;2023-01-29T05:00:51;27.20;;;16.48;;
55172;SDS011;41061;52.822;6.860;2023-01-29T05:03:18;25.23;;;16.63;;
55172;SDS011;41061;52.822;6.860;2023-01-29T05:05:47;27.77;;;17.48;;
55172;SDS011;41061;52.822;6.860;2023-01-29T05:08:16;25.85;;;16.75;;
55172;SDS011;41061;52.822;6.860;2023-01-29T05:10:44;27.77;;;16.73;;
55172;SDS011;41061;52.822;6.860;2023-01-29T05:13:12;27.13;;;16.90;;
55172;SDS011;41061;52.822;6.860;2023-01-29T05:15:41;23.95;;;16.77;;
55172;SDS011;41061;52.822;6.860;2023-01-29T05:18:11;27.38;;;16.95;;
55172;SDS011;41061;52.822;6.860;2023-01-29T05:20:37;23.15;;;16.98;;
55172;SDS011;41061;52.822;6.860;2023-01-29T05:23:09;25.30;;;17.33;;
55172;SDS011;41061;52.822;6.860;2023-01-29T05:25:42;28.73;;;16.90;;
55172;SDS011;41061;52.822;6.860;2023-01-29T05:28:09;28.30;;;18.60;;
55172;SDS011;41061;52.822;6.860;2023-01-29T05:30:45;24.50;;;17.33;;
55172;SDS011;41061;52.822;6.860;2023-01-29T05:33:16;24.98;;;17.30;;
55172;SDS011;41061;52.822;6.860;2023-01-29T05:35:48;29.55;;;17.17;;
55172;SDS011;41061;52.822;6.860;2023-01-29T05:38:14;26.15;;;17.15;;
55172;SDS011;41061;52.822;6.860;2023-01-29T05:40:41;26.30;;;17.75;;
55172;SDS011;41061;52.822;6.860;2023-01-29T05:43:17;24.65;;;17.67;;
55172;SDS011;41061;52.822;6.860;2023-01-29T05:45:52;29.48;;;18.67;;
55172;SDS011;41061;52.822;6.860;2023-01-29T05:48:18;29.58;;;18.48;;
55172;SDS011;41061;52.822;6.860;2023-01-29T05:50:45;30.77;;;18.52;;
55172;SDS011;41061;52.822;6.860;2023-01-29T05:53:11;27.92;;;18.85;;
55172;SDS011;41061;52.822;6.860;2023-01-29T05:55:36;32.65;;;18.85;;
55172;SDS011;41061;52.822;6.860;2023-01-29T05:58:02;28.95;;;19.00;;
55172;SDS011;41061;52.822;6.860;2023-01-29T06:00:28;28.55;;;19.40;;
55172;SDS011;41061;52.822;6.860;2023-01-29T06:02:53;27.80;;;19.40;;
55172;SDS011;41061;52.822;6.860;2023-01-29T06:05:20;29.58;;;18.90;;
55172;SDS011;41061;52.822;6.860;2023-01-29T06:07:46;28.02;;;18.05;;
55172;SDS011;41061;52.822;6.860;2023-01-29T06:10:12;28.13;;;18.73;;
55172;SDS011;41061;52.822;6.860;2023-01-29T06:12:41;28.77;;;19.40;;
55172;SDS011;41061;52.822;6.860;2023-01-29T06:15:07;26.98;;;18.42;;
55172;SDS011;41061;52.822;6.860;2023-01-29T06:17:33;29.25;;;19.42;;
55172;SDS011;41061;52.822;6.860;2023-01-29T06:19:59;29.83;;;18.90;;
55172;SDS011;41061;52.822;6.860;2023-01-29T06:22:25;25.17;;;17.98;;
55172;SDS011;41061;52.822;6.860;2023-01-29T06:24:50;31.95;;;20.80;;
55172;SDS011;41061;52.822;6.860;2023-01-29T06:27:16;24.40;;;17.83;;
55172;SDS011;41061;52.822;6.860;2023-01-29T06:29:42;26.70;;;18.30;;
55172;SDS011;41061;52.822;6.860;2023-01-29T06:32:07;27.15;;;18.73;;
55172;SDS011;41061;52.822;6.860;2023-01-29T06:34:33;29.15;;;18.40;;
55172;SDS011;41061;52.822;6.860;2023-01-29T06:36:59;30.55;;;19.02;;
55172;SDS011;41061;52.822;6.860;2023-01-29T06:39:24;27.70;;;18.40;;
55172;SDS011;41061;52.822;6.860;2023-01-29T06:41:50;31.30;;;18.40;;
55172;SDS011;41061;52.822;6.860;2023-01-29T06:44:15;29.25;;;18.48;;
55172;SDS011;41061;52.822;6.860;2023-01-29T06:46:41;25.55;;;17.90;;
55172;SDS011;41061;52.822;6.860;2023-01-29T06:49:07;29.13;;;18.33;;
55172;SDS011;41061;52.822;6.860;2023-01-29T06:51:32;30.40;;;19.65;;
55172;SDS011;41061;52.822;6.860;2023-01-29T06:53:58;28.45;;;18.95;;
55172;SDS011;41061;52.822;6.860;2023-01-29T06:56:24;29.70;;;18.30;;
55172;SDS011;41061;52.822;6.860;2023-01-29T06:58:51;30.13;;;19.98;;
55172;SDS011;41061;52.822;6.860;2023-01-29T07:01:17;27.88;;;18.67;;
55172;SDS011;41061;52.822;6.860;2023-01-29T07:03:43;28.55;;;18.48;;
55172;SDS011;41061;52.822;6.860;2023-01-29T07:06:09;29.25;;;19.45;;
55172;SDS011;41061;52.822;6.860;2023-01-29T07:08:38;27.75;;;18.73;;
55172;SDS011;41061;52.822;6.860;2023-01-29T07:11:05;30.42;;;20.20;;
55172;SDS011;41061;52.822;6.860;2023-01-29T07:13:31;29.77;;;19.00;;
55172;SDS011;41061;52.822;6.860;2023-01-29T07:15:58;29.80;;;18.85;;
55172;SDS011;41061;52.822;6.860;2023-01-29T07:18:25;26.33;;;19.02;;
55172;SDS011;41061;52.822;6.860;2023-01-29T07:20:54;29.27;;;19.42;;
55172;SDS011;41061;52.822;6.860;2023-01-29T07:23:20;30.92;;;19.50;;
55172;SDS011;41061;52.822;6.860;2023-01-29T07:25:46;30.83;;;18.90;;
55172;SDS011;41061;52.822;6.860;2023-01-29T07:28:14;30.70;;;19.92;;
55172;SDS011;41061;52.822;6.860;2023-01-29T07:30:44;31.98;;;20.02;;
55172;SDS011;41061;52.822;6.860;2023-01-29T07:33:10;29.20;;;18.80;;
55172;SDS011;41061;52.822;6.860;2023-01-29T07:35:37;26.40;;;18.27;;
55172;SDS011;41061;52.822;6.860;2023-01-29T07:38:05;30.38;;;19.95;;
55172;SDS011;41061;52.822;6.860;2023-01-29T07:40:31;31.38;;;18.63;;
55172;SDS011;41061;52.822;6.860;2023-01-29T07:42:58;29.88;;;19.05;;
55172;SDS011;41061;52.822;6.860;2023-01-29T07:45:24;30.98;;;19.58;;
55172;SDS011;41061;52.822;6.860;2023-01-29T07:47:51;30.75;;;19.67;;
55172;SDS011;41061;52.822;6.860;2023-01-29T07:50:18;29.35;;;20.25;;
55172;SDS011;41061;52.822;6.860;2023-01-29T07:52:44;26.05;;;18.42;;
55172;SDS011;41061;52.822;6.860;2023-01-29T07:55:09;27.08;;;18.85;;
55172;SDS011;41061;52.822;6.860;2023-01-29T07:57:35;27.92;;;18.70;;
55172;SDS011;41061;52.822;6.860;2023-01-29T08:00:01;28.90;;;19.50;;
55172;SDS011;41061;52.822;6.860;2023-01-29T08:02:26;26.00;;;17.83;;
55172;SDS011;41061;52.822;6.860;2023-01-29T08:04:52;29.75;;;19.73;;
55172;SDS011;41061;52.822;6.860;2023-01-29T08:07:18;34.72;;;19.95;;
55172;SDS011;41061;52.822;6.860;2023-01-29T08:09:43;28.85;;;19.77;;
55172;SDS011;41061;52.822;6.860;2023-01-29T08:12:09;29.55;;;19.60;;
55172;SDS011;41061;52.822;6.860;2023-01-29T08:14:35;27.42;;;17.92;;
55172;SDS011;41061;52.822;6.860;2023-01-29T08:17:00;28.15;;;19.25;;
55172;SDS011;41061;52.822;6.860;2023-01-29T08:19:26;32.28;;;18.50;;
55172;SDS011;41061;52.822;6.860;2023-01-29T08:21:52;30.00;;;18.70;;
55172;SDS011;41061;52.822;6.860;2023-01-29T08:24:17;27.25;;;18.58;;
55172;SDS011;41061;52.822;6.860;2023-01-29T08:26:43;29.45;;;19.20;;
55172;SDS011;41061;52.822;6.860;2023-01-29T08:29:09;31.35;;;20.45;;
55172;SDS011;41061;52.822;6.860;2023-01-29T08:31:36;26.45;;;18.50;;
55172;SDS011;41061;52.822;6.860;2023-01-29T08:34:01;31.67;;;19.55;;
55172;SDS011;41061;52.822;6.860;2023-01-29T08:36:27;30.13;;;19.30;;
55172;SDS011;41061;52.822;6.860;2023-01-29T08:38:53;31.15;;;19.77;;
55172;SDS011;41061;52.822;6.860;2023-01-29T08:41:18;33.45;;;21.30;;
55172;SDS011;41061;52.822;6.860;2023-01-29T08:43:44;30.58;;;19.98;;
55172;SDS011;41061;52.822;6.860;2023-01-29T08:46:10;28.30;;;19.48;;
55172;SDS011;41061;52.822;6.860;2023-01-29T08:48:36;29.00;;;18.48;;
55172;SDS011;41061;52.822;6.860;2023-01-29T08:51:02;27.67;;;19.42;;
55172;SDS011;41061;52.822;6.860;2023-01-29T08:53:29;29.65;;;20.13;;
55172;SDS011;41061;52.822;6.860;2023-01-29T08:55:55;31.83;;;19.38;;
55172;SDS011;41061;52.822;6.860;2023-01-29T08:58:21;33.65;;;20.00;;
55172;SDS011;41061;52.822;6.860;2023-01-29T09:00:48;34.30;;;20.40;;
55172;SDS011;41061;52.822;6.860;2023-01-29T09:03:14;32.80;;;19.77;;
55172;SDS011;41061;52.822;6.860;2023-01-29T09:05:39;30.23;;;20.33;;
55172;SDS011;41061;52.822;6.860;2023-01-29T09:08:06;33.58;;;20.00;;
55172;SDS011;41061;52.822;6.860;2023-01-29T09:10:33;30.73;;;19.15;;
55172;SDS011;41061;52.822;6.860;2023-01-29T09:12:59;30.38;;;19.83;;
55172;SDS011;41061;52.822;6.860;2023-01-29T09:15:25;27.73;;;19.63;;
55172;SDS011;41061;52.822;6.860;2023-01-29T09:17:51;29.38;;;20.15;;
55172;SDS011;41061;52.822;6.860;2023-01-29T09:20:17;28.90;;;18.90;;
55172;SDS011;41061;52.822;6.860;2023-01-29T09:22:43;30.85;;;20.45;;
55172;SDS011;41061;52.822;6.860;2023-01-29T09:25:10;28.55;;;18.40;;
55172;SDS011;41061;52.822;6.860;2023-01-29T09:27:36;27.75;;;19.40;;
55172;SDS011;41061;52.822;6.860;2023-01-29T09:30:03;34.88;;;19.65;;
55172;SDS011;41061;52.822;6.860;2023-01-29T09:32:29;31.40;;;19.85;;
55172;SDS011;41061;52.822;6.860;2023-01-29T09:34:56;33.22;;;20.08;;
55172;SDS011;41061;52.822;6.860;2023-01-29T09:37:22;29.77;;;19.70;;
55172;SDS011;41061;52.822;6.860;2023-01-29T09:39:48;31.75;;;19.27;;
55172;SDS011;41061;52.822;6.860;2023-01-29T09:45:00;30.60;;;19.42;;
55172;SDS011;41061;52.822;6.860;2023-01-29T09:47:28;31.30;;;19.85;;
55172;SDS011;41061;52.822;6.860;2023-01-29T09:55:05;26.80;;;18.38;;
55172;SDS011;41061;52.822;6.860;2023-01-29T10:00:19;29.15;;;19.63;;
55172;SDS011;41061;52.822;6.860;2023-01-29T10:11:12;26.20;;;18.92;;
55172;SDS011;41061;52.822;6.860;2023-01-29T10:13:48;26.40;;;18.90;;
55172;SDS011;41061;52.822;6.860;2023-01-29T10:16:20;26.90;;;18.90;;
55172;SDS011;41061;52.822;6.860;2023-01-29T10:23:53;29.05;;;18.83;;
55172;SDS011;41061;52.822;6.860;2023-01-29T10:26:23;29.23;;;18.92;;
55172;SDS011;41061;52.822;6.860;2023-01-29T10:28:51;30.95;;;20.00;;
55172;SDS011;41061;52.822;6.860;2023-01-29T10:31:25;26.55;;;19.30;;
55172;SDS011;41061;52.822;6.860;2023-01-29T10:34:15;31.52;;;20.15;;
55172;SDS011;41061;52.822;6.860;2023-01-29T10:36:44;33.45;;;20.60;;
55172;SDS011;41061;52.822;6.860;2023-01-29T10:39:18;30.27;;;20.02;;
55172;SDS011;41061;52.822;6.860;2023-01-29T10:52:52;30.67;;;19.30;;
55172;SDS011;41061;52.822;6.860;2023-01-29T10:55:36;31.25;;;19.20;;
55172;SDS011;41061;52.822;6.860;2023-01-29T10:58:35;31.08;;;20.55;;
55172;SDS011;41061;52.822;6.860;2023-01-29T11:01:07;28.00;;;19.67;;
55172;SDS011;41061;52.822;6.860;2023-01-29T11:03:36;30.20;;;19.98;;
55172;SDS011;41061;52.822;6.860;2023-01-29T11:08:51;29.33;;;19.08;;
55172;SDS011;41061;52.822;6.860;2023-01-29T11:11:24;34.22;;;20.95;;
55172;SDS011;41061;52.822;6.860;2023-01-29T11:16:50;33.33;;;20.92;;
55172;SDS011;41061;52.822;6.860;2023-01-29T11:19:16;33.58;;;21.38;;
55172;SDS011;41061;52.822;6.860;2023-01-29T11:21:54;31.27;;;20.20;;
55172;SDS011;41061;52.822;6.860;2023-01-29T11:24:22;26.40;;;19.08;;
55172;SDS011;41061;52.822;6.860;2023-01-29T11:26:49;30.17;;;19.40;;
55172;SDS011;41061;52.822;6.860;2023-01-29T11:32:11;32.45;;;20.17;;
55172;SDS011;41061;52.822;6.860;2023-01-29T11:37:37;30.52;;;18.95;;
55172;SDS011;41061;52.822;6.860;2023-01-29T11:42:48;28.42;;;18.98;;
55172;SDS011;41061;52.822;6.860;2023-01-29T11:47:54;29.85;;;19.10;;
55172;SDS011;41061;52.822;6.860;2023-01-29T11:50:22;30.90;;;20.42;;
55172;SDS011;41061;52.822;6.860;2023-01-29T11:52:53;34.33;;;20.27;;
55172;SDS011;41061;52.822;6.860;2023-01-29T11:55:20;32.15;;;20.25;;
55172;SDS011;41061;52.822;6.860;2023-01-29T11:57:51;31.83;;;21.00;;
55172;SDS011;41061;52.822;6.860;2023-01-29T12:00:41;31.02;;;19.45;;
55172;SDS011;41061;52.822;6.860;2023-01-29T12:03:16;31.83;;;20.35;;
55172;SDS011;41061;52.822;6.860;2023-01-29T12:05:57;32.72;;;19.02;;
55172;SDS011;41061;52.822;6.860;2023-01-29T12:08:43;36.17;;;20.92;;
55172;SDS011;41061;52.822;6.860;2023-01-29T12:11:26;35.42;;;20.40;;
55172;SDS011;41061;52.822;6.860;2023-01-29T12:13:57;32.70;;;21.52;;
55172;SDS011;41061;52.822;6.860;2023-01-29T12:16:27;37.80;;;21.92;;
55172;SDS011;41061;52.822;6.860;2023-01-29T12:19:11;31.27;;;20.20;;
55172;SDS011;41061;52.822;6.860;2023-01-29T12:21:57;31.77;;;20.70;;
55172;SDS011;41061;52.822;6.860;2023-01-29T12:26:56;31.25;;;20.45;;
55172;SDS011;41061;52.822;6.860;2023-01-29T12:33:22;30.75;;;20.17;;
55172;SDS011;41061;52.822;6.860;2023-01-29T12:36:01;35.55;;;20.05;;
55172;SDS011;41061;52.822;6.860;2023-01-29T12:38:42;33.22;;;21.25;;
55172;SDS011;41061;52.822;6.860;2023-01-29T12:41:18;28.98;;;20.08;;
55172;SDS011;41061;52.822;6.860;2023-01-29T12:47:14;33.20;;;21.10;;
55172;SDS011;41061;52.822;6.860;2023-01-29T12:50:04;33.35;;;20.70;;
55172;SDS011;41061;52.822;6.860;2023-01-29T12:52:47;32.40;;;21.05;;
55172;SDS011;41061;52.822;6.860;2023-01-29T12:55:17;34.40;;;20.98;;
55172;SDS011;41061;52.822;6.860;2023-01-29T12:57:56;34.42;;;21.73;;
55172;SDS011;41061;52.822;6.860;2023-01-29T13:00:28;27.90;;;19.73;;
55172;SDS011;41061;52.822;6.860;2023-01-29T13:03:07;31.52;;;20.27;;
55172;SDS011;41061;52.822;6.860;2023-01-29T13:08:24;34.60;;;19.67;;
55172;SDS011;41061;52.822;6.860;2023-01-29T13:10:53;32.97;;;19.92;;
55172;SDS011;41061;52.822;6.860;2023-01-29T13:13:27;37.50;;;21.45;;
55172;SDS011;41061;52.822;6.860;2023-01-29T13:15:55;30.48;;;20.48;;
55172;SDS011;41061;52.822;6.860;2023-01-29T13:21:22;30.65;;;20.45;;
55172;SDS011;41061;52.822;6.860;2023-01-29T13:23:55;30.83;;;21.23;;
55172;SDS011;41061;52.822;6.860;2023-01-29T13:26:26;39.57;;;21.77;;
55172;SDS011;41061;52.822;6.860;2023-01-29T13:28:53;30.23;;;19.98;;
55172;SDS011;41061;52.822;6.860;2023-01-29T13:31:24;29.95;;;20.40;;
55172;SDS011;41061;52.822;6.860;2023-01-29T13:33:52;35.80;;;21.48;;
55172;SDS011;41061;52.822;6.860;2023-01-29T13:36:26;33.22;;;21.35;;
55172;SDS011;41061;52.822;6.860;2023-01-29T13:39:04;35.40;;;21.23;;
55172;SDS011;41061;52.822;6.860;2023-01-29T13:41:33;33.80;;;20.70;;
55172;SDS011;41061;52.822;6.860;2023-01-29T13:44:04;31.73;;;21.17;;
55172;SDS011;41061;52.822;6.860;2023-01-29T13:46:32;30.67;;;20.25;;
55172;SDS011;41061;52.822;6.860;2023-01-29T13:48:58;34.10;;;22.42;;
55172;SDS011;41061;52.822;6.860;2023-01-29T13:51:31;31.70;;;20.75;;
55172;SDS011;41061;52.822;6.860;2023-01-29T13:54:04;34.15;;;22.45;;
55172;SDS011;41061;52.822;6.860;2023-01-29T13:58:59;29.60;;;21.33;;
55172;SDS011;41061;52.822;6.860;2023-01-29T14:04:20;35.22;;;21.80;;
55172;SDS011;41061;52.822;6.860;2023-01-29T14:06:50;33.22;;;21.60;;
55172;SDS011;41061;52.822;6.860;2023-01-29T14:12:04;36.42;;;23.23;;
55172;SDS011;41061;52.822;6.860;2023-01-29T14:14:50;42.15;;;23.70;;
55172;SDS011;41061;52.822;6.860;2023-01-29T14:17:26;36.63;;;24.20;;
55172;SDS011;41061;52.822;6.860;2023-01-29T14:20:00;38.00;;;23.45;;
55172;SDS011;41061;52.822;6.860;2023-01-29T14:22:28;37.47;;;24.60;;
55172;SDS011;41061;52.822;6.860;2023-01-29T14:24:56;36.88;;;24.55;;
55172;SDS011;41061;52.822;6.860;2023-01-29T14:27:25;38.55;;;24.95;;
55172;SDS011;41061;52.822;6.860;2023-01-29T14:30:02;37.55;;;23.42;;
55172;SDS011;41061;52.822;6.860;2023-01-29T14:32:33;40.58;;;24.13;;
55172;SDS011;41061;52.822;6.860;2023-01-29T14:35:23;42.65;;;25.58;;
55172;SDS011;41061;52.822;6.860;2023-01-29T14:37:53;40.50;;;24.90;;
55172;SDS011;41061;52.822;6.860;2023-01-29T14:40:25;42.13;;;25.48;;
55172;SDS011;41061;52.822;6.860;2023-01-29T14:43:00;36.22;;;25.58;;
55172;SDS011;41061;52.822;6.860;2023-01-29T14:56:16;38.20;;;23.67;;
55172;SDS011;41061;52.822;6.860;2023-01-29T14:58:48;38.30;;;25.33;;
55172;SDS011;41061;52.822;6.860;2023-01-29T15:01:38;42.20;;;26.25;;
55172;SDS011;41061;52.822;6.860;2023-01-29T15:04:53;43.30;;;26.83;;
55172;SDS011;41061;52.822;6.860;2023-01-29T15:07:29;44.47;;;27.27;;
55172;SDS011;41061;52.822;6.860;2023-01-29T15:12:55;43.22;;;27.75;;
55172;SDS011;41061;52.822;6.860;2023-01-29T15:18:04;45.33;;;27.92;;
55172;SDS011;41061;52.822;6.860;2023-01-29T15:20:46;44.60;;;26.42;;
55172;SDS011;41061;52.822;6.860;2023-01-29T15:23:23;46.05;;;28.77;;
55172;SDS011;41061;52.822;6.860;2023-01-29T15:25:51;47.95;;;29.20;;
55172;SDS011;41061;52.822;6.860;2023-01-29T15:28:20;47.05;;;28.17;;
55172;SDS011;41061;52.822;6.860;2023-01-29T15:30:53;50.83;;;31.20;;
55172;SDS011;41061;52.822;6.860;2023-01-29T15:33:20;49.30;;;29.75;;
55172;SDS011;41061;52.822;6.860;2023-01-29T15:35:47;55.55;;;31.08;;
55172;SDS011;41061;52.822;6.860;2023-01-29T15:43:28;45.70;;;28.85;;
55172;SDS011;41061;52.822;6.860;2023-01-29T15:45:55;45.08;;;27.35;;
55172;SDS011;41061;52.822;6.860;2023-01-29T15:48:30;46.33;;;29.95;;
55172;SDS011;41061;52.822;6.860;2023-01-29T15:51:00;51.25;;;32.13;;
55172;SDS011;41061;52.822;6.860;2023-01-29T15:53:32;47.90;;;30.42;;
55172;SDS011;41061;52.822;6.860;2023-01-29T15:56:00;50.50;;;30.85;;
55172;SDS011;41061;52.822;6.860;2023-01-29T15:58:29;50.03;;;30.95;;
55172;SDS011;41061;52.822;6.860;2023-01-29T16:00:56;52.42;;;30.80;;
55172;SDS011;41061;52.822;6.860;2023-01-29T16:03:24;47.45;;;31.48;;
55172;SDS011;41061;52.822;6.860;2023-01-29T16:05:52;44.70;;;28.58;;
55172;SDS011;41061;52.822;6.860;2023-01-29T16:08:20;52.80;;;30.88;;
55172;SDS011;41061;52.822;6.860;2023-01-29T16:10:48;48.08;;;31.13;;
55172;SDS011;41061;52.822;6.860;2023-01-29T16:13:21;47.35;;;30.20;;
55172;SDS011;41061;52.822;6.860;2023-01-29T16:15:53;48.75;;;29.98;;
55172;SDS011;41061;52.822;6.860;2023-01-29T16:18:24;47.40;;;29.42;;
55172;SDS011;41061;52.822;6.860;2023-01-29T16:20:58;48.35;;;30.27;;
55172;SDS011;41061;52.822;6.860;2023-01-29T16:23:29;47.90;;;30.20;;
55172;SDS011;41061;52.822;6.860;2023-01-29T16:26:01;51.97;;;32.15;;
55172;SDS011;41061;52.822;6.860;2023-01-29T16:28:30;55.83;;;35.20;;
55172;SDS011;41061;52.822;6.860;2023-01-29T16:30:56;53.67;;;32.67;;
55172;SDS011;41061;52.822;6.860;2023-01-29T16:33:27;51.70;;;31.02;;
55172;SDS011;41061;52.822;6.860;2023-01-29T16:36:02;53.65;;;31.25;;
55172;SDS011;41061;52.822;6.860;2023-01-29T16:38:35;47.15;;;30.20;;
55172;SDS011;41061;52.822;6.860;2023-01-29T16:41:17;43.85;;;28.33;;
55172;SDS011;41061;52.822;6.860;2023-01-29T16:46:47;54.83;;;30.98;;
55172;SDS011;41061;52.822;6.860;2023-01-29T16:51:51;49.90;;;30.17;;
55172;SDS011;41061;52.822;6.860;2023-01-29T16:54:19;49.75;;;30.60;;
55172;SDS011;41061;52.822;6.860;2023-01-29T16:56:49;52.90;;;30.55;;
55172;SDS011;41061;52.822;6.860;2023-01-29T16:59:18;50.83;;;29.90;;
55172;SDS011;41061;52.822;6.860;2023-01-29T17:01:51;50.20;;;27.55;;
55172;SDS011;41061;52.822;6.860;2023-01-29T17:04:19;47.60;;;29.27;;
55172;SDS011;41061;52.822;6.860;2023-01-29T17:06:47;51.55;;;30.55;;
55172;SDS011;41061;52.822;6.860;2023-01-29T17:09:18;45.72;;;29.00;;
55172;SDS011;41061;52.822;6.860;2023-01-29T17:11:47;50.22;;;29.63;;
55172;SDS011;41061;52.822;6.860;2023-01-29T17:14:20;53.00;;;30.30;;
55172;SDS011;41061;52.822;6.860;2023-01-29T17:16:51;52.80;;;30.55;;
55172;SDS011;41061;52.822;6.860;2023-01-29T17:19:19;46.05;;;29.17;;